Private Wetterstation Sandau
Wetterdaten: Montag, 25.02.2013
Datum Zeit Temp. A. Feuchte A. Luftdruck Regen Wind Richtung Richtung Taupunkt Windchill
25.02.2013 00:01 1,3 C 95 % 1020,0 hPa 0,0 l/m 6,1 km/h (2 Bft) O-NO 67 0,6 C -0,6 C
25.02.2013 00:06 1,3 C 95 % 1020,1 hPa 0,0 l/m 4,0 km/h (1 Bft) NO 45 0,6 C 1,3 C
25.02.2013 00:11 1,3 C 95 % 1020,1 hPa 0,0 l/m 4,3 km/h (1 Bft) O 90 0,6 C 1,3 C
25.02.2013 00:16 1,3 C 95 % 1020,3 hPa 0,0 l/m 5,8 km/h (2 Bft) NO 45 0,6 C -0,5 C
25.02.2013 00:21 1,3 C 95 % 1019,9 hPa 0,0 l/m 3,2 km/h (1 Bft) NO 45 0,6 C 1,3 C
25.02.2013 00:26 1,3 C 95 % 1020,1 hPa 0,0 l/m 4,7 km/h (1 Bft) O-NO 67 0,6 C 0,0 C
25.02.2013 00:31 1,3 C 95 % 1020,1 hPa 0,0 l/m 0,0 km/h (0 Bft) NO 45 0,6 C 1,3 C
25.02.2013 00:36 1,3 C 95 % 1020,0 hPa 0,0 l/m 7,2 km/h (2 Bft) O-NO 67 0,6 C -1,0 C
25.02.2013 00:41 1,3 C 95 % 1020,1 hPa 0,0 l/m 7,2 km/h (2 Bft) O-NO 67 0,6 C -1,0 C
25.02.2013 00:46 1,3 C 95 % 1020,2 hPa 0,0 l/m 5,4 km/h (1 Bft) NO 45 0,6 C -0,3 C
25.02.2013 00:51 1,3 C 95 % 1020,0 hPa 0,0 l/m 4,3 km/h (1 Bft) O-NO 67 0,6 C 1,3 C
25.02.2013 00:56 1,3 C 95 % 1019,9 hPa 0,0 l/m 6,5 km/h (2 Bft) O-NO 67 0,6 C -0,7 C
25.02.2013 01:01 1,3 C 95 % 1019,9 hPa 0,0 l/m 5,4 km/h (1 Bft) N-NO 22 0,6 C -0,3 C
25.02.2013 01:06 1,2 C 95 % 1019,8 hPa 0,0 l/m 3,6 km/h (1 Bft) NO 45 0,5 C 1,2 C
25.02.2013 01:11 1,2 C 95 % 1019,8 hPa 0,0 l/m 6,8 km/h (2 Bft) O-NO 67 0,5 C -0,9 C
25.02.2013 01:16 1,2 C 95 % 1020,0 hPa 0,0 l/m 5,8 km/h (2 Bft) NO 45 0,5 C -0,6 C
25.02.2013 01:21 1,2 C 95 % 1020,0 hPa 0,0 l/m 3,2 km/h (1 Bft) NO 45 0,5 C 1,2 C
25.02.2013 01:26 1,2 C 95 % 1020,0 hPa 0,0 l/m 7,6 km/h (2 Bft) O-NO 67 0,5 C -1,2 C
25.02.2013 01:31 1,2 C 95 % 1020,2 hPa 0,0 l/m 6,1 km/h (2 Bft) N-NO 22 0,5 C -0,7 C
25.02.2013 01:36 1,2 C 95 % 1020,3 hPa 0,0 l/m 3,2 km/h (1 Bft) O-NO 67 0,5 C 1,2 C
25.02.2013 01:41 1,2 C 95 % 1020,4 hPa 0,0 l/m 6,5 km/h (2 Bft) NO 45 0,5 C -0,8 C
25.02.2013 01:46 1,2 C 95 % 1020,3 hPa 0,0 l/m 5,0 km/h (1 Bft) NO 45 0,5 C -0,2 C
25.02.2013 01:51 1,2 C 95 % 1020,4 hPa 0,0 l/m 6,8 km/h (2 Bft) NO 45 0,5 C -0,9 C
25.02.2013 01:56 1,2 C 95 % 1020,4 hPa 0,0 l/m 5,8 km/h (2 Bft) O-NO 67 0,5 C -0,6 C
25.02.2013 02:01 1,2 C 95 % 1020,3 hPa 0,0 l/m 2,2 km/h (1 Bft) NO 45 0,5 C 1,2 C
25.02.2013 02:06 1,2 C 95 % 1020,1 hPa 0,0 l/m 3,6 km/h (1 Bft) O-NO 67 0,5 C 1,2 C
25.02.2013 02:11 1,2 C 95 % 1020,2 hPa 0,0 l/m 5,8 km/h (2 Bft) NO 45 0,5 C -0,6 C
25.02.2013 02:16 1,2 C 95 % 1020,2 hPa 0,0 l/m 4,7 km/h (1 Bft) O-NO 67 0,5 C -0,1 C
25.02.2013 02:21 1,2 C 95 % 1020,3 hPa 0,0 l/m 6,8 km/h (2 Bft) O-NO 67 0,5 C -0,9 C
25.02.2013 02:26 1,2 C 95 % 1020,3 hPa 0,0 l/m 5,4 km/h (1 Bft) NO 45 0,5 C -0,4 C
25.02.2013 02:31 1,2 C 95 % 1020,3 hPa 0,0 l/m 5,0 km/h (1 Bft) NO 45 0,5 C -0,2 C
25.02.2013 02:36 1,2 C 95 % 1020,3 hPa 0,0 l/m 5,8 km/h (2 Bft) NO 45 0,5 C -0,6 C
25.02.2013 02:41 1,2 C 95 % 1020,4 hPa 0,0 l/m 7,2 km/h (2 Bft) O-NO 67 0,5 C -1,1 C
25.02.2013 02:46 1,2 C 95 % 1020,4 hPa 0,0 l/m 7,2 km/h (2 Bft) O-NO 67 0,5 C -1,1 C
25.02.2013 02:51 1,2 C 95 % 1020,2 hPa 0,0 l/m 4,7 km/h (1 Bft) NO 45 0,5 C -0,1 C
25.02.2013 02:56 1,2 C 95 % 1020,3 hPa 0,0 l/m 4,3 km/h (1 Bft) O-NO 67 0,5 C 1,2 C
25.02.2013 03:01 1,2 C 95 % 1020,3 hPa 0,0 l/m 4,0 km/h (1 Bft) O-NO 67 0,5 C 1,2 C
25.02.2013 03:06 1,2 C 95 % 1020,3 hPa 0,0 l/m 10,4 km/h (2 Bft) O-NO 67 0,5 C -2,0 C
25.02.2013 03:11 1,2 C 95 % 1020,3 hPa 0,0 l/m 11,2 km/h (2 Bft) O-NO 67 0,5 C -2,2 C
25.02.2013 03:16 1,3 C 95 % 1020,3 hPa 0,0 l/m 6,8 km/h (2 Bft) O-SO 112 0,6 C -0,8 C
25.02.2013 03:21 1,3 C 95 % 1020,3 hPa 0,0 l/m 5,8 km/h (2 Bft) O-NO 67 0,6 C -0,5 C
25.02.2013 03:26 1,3 C 95 % 1020,2 hPa 0,0 l/m 6,1 km/h (2 Bft) NO 45 0,6 C -0,6 C
25.02.2013 03:31 1,3 C 95 % 1020,4 hPa 0,0 l/m 6,5 km/h (2 Bft) NO 45 0,6 C -0,7 C
25.02.2013 03:36 1,3 C 95 % 1020,3 hPa 0,0 l/m 6,1 km/h (2 Bft) O-NO 67 0,6 C -0,6 C
25.02.2013 03:41 1,2 C 95 % 1020,4 hPa 0,0 l/m 7,2 km/h (2 Bft) O 90 0,5 C -1,1 C
25.02.2013 03:46 1,3 C 95 % 1020,3 hPa 0,0 l/m 4,0 km/h (1 Bft) NO 45 0,6 C 1,3 C
25.02.2013 03:51 1,2 C 95 % 1020,3 hPa 0,0 l/m 4,3 km/h (1 Bft) NO 45 0,5 C 1,2 C
25.02.2013 03:56 1,2 C 95 % 1020,4 hPa 0,0 l/m 4,7 km/h (1 Bft) O-NO 67 0,5 C -0,1 C
25.02.2013 04:01 1,2 C 95 % 1020,5 hPa 0,0 l/m 2,5 km/h (1 Bft) O-NO 67 0,5 C 1,2 C
25.02.2013 04:06 1,3 C 95 % 1020,5 hPa 0,0 l/m 0,0 km/h (0 Bft) NO 45 0,6 C 1,3 C
25.02.2013 04:11 1,3 C 95 % 1020,4 hPa 0,0 l/m 4,7 km/h (1 Bft) NO 45 0,6 C 0,0 C
25.02.2013 04:16 1,2 C 95 % 1020,4 hPa 0,0 l/m 5,0 km/h (1 Bft) O-NO 67 0,5 C -0,2 C
25.02.2013 04:21 1,3 C 95 % 1020,3 hPa 0,0 l/m 5,8 km/h (2 Bft) O-NO 67 0,6 C -0,5 C
25.02.2013 04:26 1,3 C 95 % 1020,3 hPa 0,0 l/m 2,5 km/h (1 Bft) NO 45 0,6 C 1,3 C
25.02.2013 04:31 1,3 C 95 % 1020,2 hPa 0,0 l/m 4,0 km/h (1 Bft) NO 45 0,6 C 1,3 C
25.02.2013 04:36 1,2 C 95 % 1020,3 hPa 0,0 l/m 9,7 km/h (2 Bft) O-NO 67 0,5 C -1,8 C
25.02.2013 04:41 1,2 C 95 % 1020,4 hPa 0,0 l/m 5,4 km/h (1 Bft) NO 45 0,5 C -0,4 C
25.02.2013 04:46 1,2 C 95 % 1020,5 hPa 0,0 l/m 4,0 km/h (1 Bft) NO 45 0,5 C 1,2 C
25.02.2013 04:51 1,2 C 95 % 1020,7 hPa 0,0 l/m 6,8 km/h (2 Bft) O-NO 67 0,5 C -0,9 C
25.02.2013 04:56 1,2 C 95 % 1020,8 hPa 0,0 l/m 9,4 km/h (2 Bft) O-NO 67 0,5 C -1,7 C
25.02.2013 05:01 1,2 C 95 % 1020,7 hPa 0,0 l/m 4,3 km/h (1 Bft) NO 45 0,5 C 1,2 C
25.02.2013 05:06 1,2 C 95 % 1020,8 hPa 0,0 l/m 4,3 km/h (1 Bft) NO 45 0,5 C 1,2 C
25.02.2013 05:11 1,1 C 95 % 1020,6 hPa 0,0 l/m 5,8 km/h (2 Bft) NO 45 0,4 C -0,7 C
25.02.2013 05:16 1,1 C 95 % 1020,7 hPa 0,0 l/m 8,3 km/h (2 Bft) O 90 0,4 C -1,5 C
25.02.2013 05:21 1,1 C 95 % 1020,9 hPa 0,0 l/m 0,0 km/h (0 Bft) NO 45 0,4 C 1,1 C
25.02.2013 05:26 1,1 C 95 % 1021,0 hPa 0,0 l/m 3,6 km/h (1 Bft) O-NO 67 0,4 C 1,1 C
25.02.2013 05:31 1,1 C 95 % 1021,0 hPa 0,0 l/m 5,8 km/h (2 Bft) O-NO 67 0,4 C -0,7 C
25.02.2013 05:36 1,1 C 95 % 1020,9 hPa 0,0 l/m 5,0 km/h (1 Bft) O-NO 67 0,4 C -0,3 C
25.02.2013 05:41 1,1 C 95 % 1021,0 hPa 0,0 l/m 8,3 km/h (2 Bft) O-NO 67 0,4 C -1,5 C
25.02.2013 05:46 1,1 C 95 % 1020,9 hPa 0,0 l/m 4,7 km/h (1 Bft) O 90 0,4 C -0,2 C
25.02.2013 05:51 1,1 C 95 % 1020,9 hPa 0,0 l/m 7,6 km/h (2 Bft) NO 45 0,4 C -1,3 C
25.02.2013 05:56 1,1 C 95 % 1021,1 hPa 0,0 l/m 6,5 km/h (2 Bft) O-NO 67 0,4 C -0,9 C
25.02.2013 06:01 1,1 C 95 % 1021,1 hPa 0,0 l/m 7,2 km/h (2 Bft) O-NO 67 0,4 C -1,2 C
25.02.2013 06:06 1,1 C 95 % 1021,1 hPa 0,0 l/m 5,8 km/h (2 Bft) NO 45 0,4 C -0,7 C
25.02.2013 06:11 1,1 C 95 % 1021,0 hPa 0,0 l/m 4,7 km/h (1 Bft) NO 45 0,4 C -0,2 C
25.02.2013 06:16 1,1 C 95 % 1021,0 hPa 0,0 l/m 6,8 km/h (2 Bft) O-NO 67 0,4 C -1,1 C
25.02.2013 06:21 1,1 C 95 % 1020,8 hPa 0,0 l/m 6,5 km/h (2 Bft) NO 45 0,4 C -0,9 C
25.02.2013 06:26 1,1 C 95 % 1021,0 hPa 0,0 l/m 4,7 km/h (1 Bft) NO 45 0,4 C -0,2 C
25.02.2013 06:31 1,1 C 95 % 1021,0 hPa 0,0 l/m 7,6 km/h (2 Bft) O-NO 67 0,4 C -1,3 C
25.02.2013 06:36 1,1 C 95 % 1021,0 hPa 0,0 l/m 2,9 km/h (1 Bft) NO 45 0,4 C 1,1 C
25.02.2013 06:41 1,0 C 95 % 1021,0 hPa 0,0 l/m 5,4 km/h (1 Bft) NO 45 0,3 C -0,6 C
25.02.2013 06:46 1,1 C 95 % 1021,2 hPa 0,0 l/m 8,6 km/h (2 Bft) NO 45 0,4 C -1,6 C
25.02.2013 06:51 1,0 C 95 % 1021,2 hPa 0,0 l/m 7,6 km/h (2 Bft) NO 45 0,3 C -1,4 C
25.02.2013 06:56 1,0 C 95 % 1021,2 hPa 0,0 l/m 6,5 km/h (2 Bft) O-NO 67 0,3 C -1,1 C
25.02.2013 07:01 1,0 C 95 % 1021,3 hPa 0,0 l/m 6,1 km/h (2 Bft) O 90 0,3 C -0,9 C
25.02.2013 07:06 1,0 C 95 % 1021,3 hPa 0,0 l/m 4,7 km/h (1 Bft) NO 45 0,3 C -0,3 C
25.02.2013 07:11 1,0 C 95 % 1021,2 hPa 0,0 l/m 3,2 km/h (1 Bft) NO 45 0,3 C 1,0 C
25.02.2013 07:16 1,0 C 95 % 1021,5 hPa 0,0 l/m 7,6 km/h (2 Bft) NO 45 0,3 C -1,4 C
25.02.2013 07:21 1,0 C 95 % 1021,5 hPa 0,0 l/m 6,1 km/h (2 Bft) NO 45 0,3 C -0,9 C
25.02.2013 07:26 1,0 C 95 % 1021,4 hPa 0,0 l/m 3,6 km/h (1 Bft) N-NO 22 0,3 C 1,0 C
25.02.2013 07:31 1,0 C 95 % 1021,4 hPa 0,5 l/m 4,0 km/h (1 Bft) O-NO 67 0,3 C 1,0 C
25.02.2013 07:36 1,0 C 95 % 1021,4 hPa 0,0 l/m 2,5 km/h (1 Bft) NO 45 0,3 C 1,0 C
25.02.2013 07:41 0,9 C 95 % 1021,6 hPa 0,0 l/m 6,1 km/h (2 Bft) S-SO 157 0,2 C -1,0 C
25.02.2013 07:46 0,9 C 95 % 1021,7 hPa 0,0 l/m 5,8 km/h (2 Bft) O-NO 67 0,2 C -0,9 C
25.02.2013 07:51 1,0 C 95 % 1021,8 hPa 0,0 l/m 2,2 km/h (1 Bft) NO 45 0,3 C 1,0 C
25.02.2013 07:56 1,0 C 95 % 1021,7 hPa 0,0 l/m 3,2 km/h (1 Bft) O-NO 67 0,3 C 1,0 C
25.02.2013 08:01 1,0 C 95 % 1021,8 hPa 0,0 l/m 10,1 km/h (2 Bft) O-NO 67 0,3 C -2,1 C
25.02.2013 08:06 1,0 C 95 % 1021,7 hPa 0,0 l/m 11,5 km/h (2 Bft) O-SO 112 0,3 C -2,5 C
25.02.2013 08:11 1,0 C 95 % 1021,6 hPa 0,0 l/m 11,5 km/h (2 Bft) O-NO 67 0,3 C -2,5 C
25.02.2013 08:16 1,0 C 95 % 1021,9 hPa 0,0 l/m 5,8 km/h (2 Bft) O-NO 67 0,3 C -0,8 C
25.02.2013 08:21 0,9 C 95 % 1021,9 hPa 0,0 l/m 6,5 km/h (2 Bft) NO 45 0,2 C -1,2 C
25.02.2013 08:26 1,0 C 95 % 1021,9 hPa 0,0 l/m 3,2 km/h (1 Bft) N-NO 22 0,3 C 1,0 C
25.02.2013 08:31 1,0 C 95 % 1021,8 hPa 0,0 l/m 5,8 km/h (2 Bft) O-NO 67 0,3 C -0,8 C
25.02.2013 08:36 1,0 C 95 % 1021,8 hPa 0,0 l/m 4,3 km/h (1 Bft) NO 45 0,3 C 1,0 C
25.02.2013 08:41 1,0 C 95 % 1021,9 hPa 0,0 l/m 5,8 km/h (2 Bft) O-NO 67 0,3 C -0,8 C
25.02.2013 08:46 1,0 C 95 % 1021,8 hPa 0,0 l/m 10,1 km/h (2 Bft) N-NO 22 0,3 C -2,1 C
25.02.2013 08:51 1,0 C 95 % 1021,9 hPa 0,0 l/m 4,3 km/h (1 Bft) O-NO 67 0,3 C 1,0 C
25.02.2013 08:56 1,0 C 95 % 1022,0 hPa 0,0 l/m 8,6 km/h (2 Bft) NO 45 0,3 C -1,7 C
25.02.2013 09:01 1,0 C 95 % 1022,3 hPa 0,0 l/m 6,8 km/h (2 Bft) N-NO 22 0,3 C -1,2 C
25.02.2013 09:06 1,1 C 95 % 1022,1 hPa 0,0 l/m 3,2 km/h (1 Bft) O-NO 67 0,4 C 1,1 C
25.02.2013 09:11 1,1 C 95 % 1022,4 hPa 0,0 l/m 4,0 km/h (1 Bft) NO 45 0,4 C 1,1 C
25.02.2013 09:16 1,1 C 95 % 1022,5 hPa 0,0 l/m 8,6 km/h (2 Bft) O-NO 67 0,4 C -1,6 C
25.02.2013 09:21 1,1 C 95 % 1022,6 hPa 0,0 l/m 4,7 km/h (1 Bft) NO 45 0,4 C -0,2 C
25.02.2013 09:26 1,1 C 95 % 1022,6 hPa 0,0 l/m 10,4 km/h (2 Bft) O-NO 67 0,4 C -2,1 C
25.02.2013 09:31 1,1 C 95 % 1022,8 hPa 0,0 l/m 3,2 km/h (1 Bft) NO 45 0,4 C 1,1 C
25.02.2013 09:36 1,1 C 95 % 1022,7 hPa 0,0 l/m 5,4 km/h (1 Bft) O-NO 67 0,4 C -0,5 C
25.02.2013 09:41 1,1 C 95 % 1022,9 hPa 0,0 l/m 4,7 km/h (1 Bft) NO 45 0,4 C -0,2 C
25.02.2013 09:46 1,1 C 95 % 1023,0 hPa 0,0 l/m 5,0 km/h (1 Bft) O-NO 67 0,4 C -0,3 C
25.02.2013 09:51 1,1 C 95 % 1023,1 hPa 0,0 l/m 6,8 km/h (2 Bft) O-NO 67 0,4 C -1,1 C
25.02.2013 09:56 1,1 C 95 % 1023,1 hPa 0,0 l/m 4,3 km/h (1 Bft) NO 45 0,4 C 1,1 C
25.02.2013 10:01 1,2 C 95 % 1022,8 hPa 0,0 l/m 6,1 km/h (2 Bft) NO 45 0,5 C -0,7 C
25.02.2013 10:06 1,2 C 95 % 1023,0 hPa 0,0 l/m 6,1 km/h (2 Bft) O-NO 67 0,5 C -0,7 C
25.02.2013 10:11 1,2 C 95 % 1023,0 hPa 0,0 l/m 5,4 km/h (1 Bft) O-NO 67 0,5 C -0,4 C
25.02.2013 10:16 1,2 C 95 % 1022,9 hPa 0,0 l/m 11,2 km/h (2 Bft) O-NO 67 0,5 C -2,2 C
25.02.2013 10:21 1,3 C 95 % 1023,1 hPa 0,0 l/m 6,1 km/h (2 Bft) NO 45 0,6 C -0,6 C
25.02.2013 10:26 1,3 C 95 % 1023,2 hPa 0,0 l/m 6,1 km/h (2 Bft) O-NO 67 0,6 C -0,6 C
25.02.2013 10:31 1,3 C 95 % 1023,1 hPa 0,0 l/m 13,7 km/h (3 Bft) O-NO 67 0,6 C -2,6 C
25.02.2013 10:36 1,3 C 95 % 1023,2 hPa 0,0 l/m 4,7 km/h (1 Bft) O 90 0,6 C 0,0 C
25.02.2013 10:41 1,3 C 95 % 1023,1 hPa 0,0 l/m 9,4 km/h (2 Bft) NO 45 0,6 C -1,6 C
25.02.2013 10:46 1,3 C 95 % 1023,2 hPa 0,0 l/m 7,6 km/h (2 Bft) O-NO 67 0,6 C -1,1 C
25.02.2013 10:51 1,3 C 95 % 1023,2 hPa 0,0 l/m 7,9 km/h (2 Bft) O-NO 67 0,6 C -1,2 C
25.02.2013 10:56 1,4 C 95 % 1023,2 hPa 0,0 l/m 3,2 km/h (1 Bft) O-SO 112 0,7 C 1,4 C
25.02.2013 11:01 1,5 C 95 % 1023,3 hPa 0,0 l/m 5,4 km/h (1 Bft) O-NO 67 0,8 C -0,1 C
25.02.2013 11:06 1,6 C 94 % 1023,3 hPa 0,0 l/m 20,5 km/h (4 Bft) O-NO 67 0,7 C -3,3 C
25.02.2013 11:11 1,6 C 94 % 1023,2 hPa 0,0 l/m 7,6 km/h (2 Bft) O-NO 67 0,7 C -0,7 C
25.02.2013 11:16 1,6 C 94 % 1023,2 hPa 0,0 l/m 8,3 km/h (2 Bft) O-NO 67 0,7 C -0,9 C
25.02.2013 11:21 1,6 C 94 % 1023,4 hPa 0,0 l/m 7,9 km/h (2 Bft) NO 45 0,7 C -0,8 C
25.02.2013 11:26 1,6 C 94 % 1023,4 hPa 0,0 l/m 9,0 km/h (2 Bft) O-NO 67 0,7 C -1,1 C
25.02.2013 11:31 1,6 C 94 % 1023,6 hPa 0,0 l/m 4,7 km/h (1 Bft) O-NO 67 0,7 C 0,4 C
25.02.2013 11:36 1,7 C 94 % 1023,4 hPa 0,0 l/m 13,3 km/h (3 Bft) NO 45 0,8 C -2,0 C
25.02.2013 11:41 1,6 C 94 % 1023,6 hPa 0,0 l/m 8,3 km/h (2 Bft) O-NO 67 0,7 C -0,9 C
25.02.2013 11:46 1,6 C 94 % 1023,5 hPa 0,0 l/m 12,2 km/h (2 Bft) NO 45 0,7 C -1,9 C
25.02.2013 11:51 1,7 C 94 % 1023,6 hPa 0,0 l/m 11,2 km/h (2 Bft) O-SO 112 0,8 C -1,6 C
25.02.2013 11:56 1,8 C 94 % 1023,6 hPa 0,0 l/m 4,3 km/h (1 Bft) O-NO 67 0,9 C 1,8 C
25.02.2013 12:01 1,8 C 94 % 1023,5 hPa 0,0 l/m 9,7 km/h (2 Bft) O-NO 67 0,9 C -1,1 C
25.02.2013 12:06 1,8 C 93 % 1023,7 hPa 0,0 l/m 1,4 km/h (1 Bft) O-NO 67 0,8 C 1,8 C
25.02.2013 12:11 1,9 C 93 % 1023,4 hPa 0,0 l/m 7,6 km/h (2 Bft) O 90 0,9 C -0,4 C
25.02.2013 12:16 1,9 C 93 % 1023,6 hPa 0,0 l/m 6,1 km/h (2 Bft) NO 45 0,9 C 0,1 C
25.02.2013 12:21 2,1 C 93 % 1023,6 hPa 0,0 l/m 11,5 km/h (2 Bft) O-NO 67 1,1 C -1,2 C
25.02.2013 12:26 2,1 C 93 % 1023,6 hPa 0,0 l/m 5,0 km/h (1 Bft) NO 45 1,1 C 0,8 C
25.02.2013 12:31 2,1 C 92 % 1023,5 hPa 0,0 l/m 12,2 km/h (2 Bft) NO 45 0,9 C -1,3 C
25.02.2013 12:36 2,1 C 92 % 1023,6 hPa 0,0 l/m 2,9 km/h (1 Bft) O-NO 67 0,9 C 2,1 C
25.02.2013 12:41 2,1 C 92 % 1023,6 hPa 0,5 l/m 6,8 km/h (2 Bft) O 90 0,9 C 0,1 C
25.02.2013 12:46 2,1 C 92 % 1023,6 hPa 0,0 l/m 6,1 km/h (2 Bft) O 90 0,9 C 0,4 C
25.02.2013 12:51 2,1 C 92 % 1023,5 hPa 0,0 l/m 10,8 km/h (2 Bft) O 90 0,9 C -1,0 C
25.02.2013 12:56 2,1 C 92 % 1023,4 hPa 0,0 l/m 6,8 km/h (2 Bft) O-NO 67 0,9 C 0,1 C
25.02.2013 13:01 2,1 C 92 % 1023,5 hPa 0,0 l/m 4,0 km/h (1 Bft) O 90 0,9 C 2,1 C
25.02.2013 13:06 2,1 C 92 % 1023,7 hPa 0,0 l/m 10,4 km/h (2 Bft) NO 45 0,9 C -0,9 C
25.02.2013 13:11 2,1 C 92 % 1023,7 hPa 0,0 l/m 11,9 km/h (2 Bft) O-NO 67 0,9 C -1,2 C
25.02.2013 13:16 2,1 C 92 % 1023,8 hPa 0,0 l/m 13,7 km/h (3 Bft) NO 45 0,9 C -1,6 C
25.02.2013 13:21 2,1 C 92 % 1023,9 hPa 0,0 l/m 4,3 km/h (1 Bft) NO 45 0,9 C 2,1 C
25.02.2013 13:26 2,1 C 92 % 1023,8 hPa 0,0 l/m 6,1 km/h (2 Bft) NO 45 0,9 C 0,4 C
25.02.2013 13:31 2,1 C 92 % 1023,8 hPa 0,0 l/m 5,8 km/h (2 Bft) O-NO 67 0,9 C 0,5 C
25.02.2013 13:36 2,2 C 92 % 1023,7 hPa 0,0 l/m 9,0 km/h (2 Bft) O-NO 67 1,0 C -0,4 C
25.02.2013 13:41 2,2 C 92 % 1023,9 hPa 0,0 l/m 5,0 km/h (1 Bft) O-NO 67 1,0 C 0,9 C
25.02.2013 13:46 2,3 C 92 % 1024,1 hPa 0,0 l/m 5,4 km/h (1 Bft) O-NO 67 1,1 C 0,9 C
25.02.2013 13:51 2,3 C 91 % 1024,0 hPa 0,0 l/m 6,1 km/h (2 Bft) O-NO 67 1,0 C 0,6 C
25.02.2013 13:56 2,3 C 91 % 1023,9 hPa 0,0 l/m 7,9 km/h (2 Bft) O-SO 112 1,0 C -0,0 C
25.02.2013 14:01 2,3 C 91 % 1024,0 hPa 0,0 l/m 5,8 km/h (2 Bft) NO 45 1,0 C 0,7 C
25.02.2013 14:06 2,2 C 91 % 1023,9 hPa 0,0 l/m 9,0 km/h (2 Bft) NO 45 0,9 C -0,4 C
25.02.2013 14:11 2,2 C 91 % 1023,9 hPa 0,0 l/m 4,0 km/h (1 Bft) NO 45 0,9 C 2,2 C
25.02.2013 14:16 2,1 C 91 % 1023,9 hPa 0,0 l/m 6,5 km/h (2 Bft) NO 45 0,8 C 0,2 C
25.02.2013 14:21 2,1 C 91 % 1024,2 hPa 0,0 l/m 7,9 km/h (2 Bft) O-SO 112 0,8 C -0,2 C
25.02.2013 14:26 2,1 C 91 % 1024,1 hPa 0,0 l/m 6,1 km/h (2 Bft) NO 45 0,8 C 0,4 C
25.02.2013 14:31 2,1 C 91 % 1024,1 hPa 0,0 l/m 11,2 km/h (2 Bft) O-NO 67 0,8 C -1,1 C
25.02.2013 14:36 2,2 C 91 % 1024,2 hPa 0,0 l/m 6,1 km/h (2 Bft) O 90 0,9 C 0,5 C
25.02.2013 14:41 2,2 C 91 % 1024,1 hPa 0,0 l/m 7,6 km/h (2 Bft) NO 45 0,9 C -0,0 C
25.02.2013 14:46 2,3 C 91 % 1024,2 hPa 0,0 l/m 3,6 km/h (1 Bft) O-NO 67 1,0 C 2,3 C
25.02.2013 14:51 2,3 C 91 % 1024,3 hPa 0,0 l/m 4,0 km/h (1 Bft) O 90 1,0 C 2,3 C
25.02.2013 14:56 2,3 C 91 % 1024,1 hPa 0,0 l/m 10,1 km/h (2 Bft) O-NO 67 1,0 C -0,6 C
25.02.2013 15:01 2,3 C 90 % 1024,1 hPa 0,0 l/m 5,4 km/h (1 Bft) O-NO 67 0,8 C 0,9 C
25.02.2013 15:06 2,3 C 90 % 1024,3 hPa 0,0 l/m 5,8 km/h (2 Bft) O-NO 67 0,8 C 0,7 C
25.02.2013 15:11 2,3 C 90 % 1024,4 hPa 0,0 l/m 14,4 km/h (3 Bft) NO 45 0,8 C -1,5 C
25.02.2013 15:16 2,2 C 91 % 1024,5 hPa 0,0 l/m 3,2 km/h (1 Bft) O-NO 67 0,9 C 2,2 C
25.02.2013 15:21 2,3 C 91 % 1024,5 hPa 0,0 l/m 12,6 km/h (3 Bft) O-NO 67 1,0 C -1,1 C
25.02.2013 15:26 2,3 C 91 % 1024,7 hPa 0,0 l/m 6,1 km/h (2 Bft) O 90 1,0 C 0,6 C
25.02.2013 15:31 2,4 C 91 % 1024,7 hPa 0,0 l/m 5,8 km/h (2 Bft) O 90 1,1 C 0,8 C
25.02.2013 15:36 2,5 C 91 % 1024,8 hPa 0,0 l/m 2,9 km/h (1 Bft) NO 45 1,2 C 2,5 C
25.02.2013 15:41 2,4 C 90 % 1024,9 hPa 0,0 l/m 5,8 km/h (2 Bft) O-SO 112 0,9 C 0,8 C
25.02.2013 15:46 2,4 C 90 % 1024,9 hPa 0,0 l/m 2,9 km/h (1 Bft) NO 45 0,9 C 2,4 C
25.02.2013 15:51 2,3 C 90 % 1024,9 hPa 0,0 l/m 11,5 km/h (2 Bft) O-SO 112 0,8 C -0,9 C
25.02.2013 15:56 2,2 C 90 % 1024,9 hPa 0,0 l/m 5,0 km/h (1 Bft) O-NO 67 0,7 C 0,9 C
25.02.2013 16:01 2,2 C 90 % 1024,9 hPa 0,0 l/m 5,8 km/h (2 Bft) O-SO 112 0,7 C 0,6 C
25.02.2013 16:06 2,1 C 90 % 1025,0 hPa 0,0 l/m 7,6 km/h (2 Bft) SO 135 0,6 C -0,2 C
25.02.2013 16:11 2,1 C 90 % 1025,0 hPa 0,0 l/m 8,3 km/h (2 Bft) O-NO 67 0,6 C -0,4 C
25.02.2013 16:16 2,1 C 90 % 1025,1 hPa 0,0 l/m 7,2 km/h (2 Bft) O 90 0,6 C -0,0 C
25.02.2013 16:21 2,1 C 90 % 1025,3 hPa 0,0 l/m 6,1 km/h (2 Bft) O 90 0,6 C 0,4 C
25.02.2013 16:26 2,1 C 90 % 1025,3 hPa 0,0 l/m 7,2 km/h (2 Bft) NO 45 0,6 C -0,0 C
25.02.2013 16:31 2,1 C 90 % 1025,3 hPa 0,0 l/m 8,3 km/h (2 Bft) O-NO 67 0,6 C -0,4 C
25.02.2013 16:36 2,1 C 90 % 1025,4 hPa 0,0 l/m 10,1 km/h (2 Bft) O-NO 67 0,6 C -0,8 C
25.02.2013 16:41 2,1 C 90 % 1025,5 hPa 0,0 l/m 3,2 km/h (1 Bft) NO 45 0,6 C 2,1 C
25.02.2013 16:46 2,1 C 90 % 1025,5 hPa 0,0 l/m 12,2 km/h (2 Bft) O-SO 112 0,6 C -1,3 C
25.02.2013 16:51 2,1 C 90 % 1025,4 hPa 0,0 l/m 6,5 km/h (2 Bft) O-NO 67 0,6 C 0,2 C
25.02.2013 16:56 2,1 C 90 % 1025,4 hPa 0,0 l/m 4,7 km/h (1 Bft) O 90 0,6 C 0,9 C
25.02.2013 17:01 2,1 C 90 % 1025,5 hPa 0,0 l/m 8,3 km/h (2 Bft) O 90 0,6 C -0,4 C
25.02.2013 17:06 2,1 C 90 % 1025,5 hPa 0,0 l/m 7,2 km/h (2 Bft) O-SO 112 0,6 C -0,0 C
25.02.2013 17:11 2,0 C 90 % 1025,6 hPa 0,0 l/m 4,0 km/h (1 Bft) O-SO 112 0,5 C 2,0 C
25.02.2013 17:16 1,9 C 90 % 1025,6 hPa 0,0 l/m 4,3 km/h (1 Bft) O-NO 67 0,4 C 1,9 C
25.02.2013 17:21 1,9 C 91 % 1025,5 hPa 0,0 l/m 3,6 km/h (1 Bft) O-NO 67 0,6 C 1,9 C
25.02.2013 17:26 1,9 C 91 % 1025,5 hPa 0,0 l/m 4,7 km/h (1 Bft) O-NO 67 0,6 C 0,7 C
25.02.2013 17:31 1,9 C 91 % 1025,9 hPa 0,0 l/m 5,4 km/h (1 Bft) O-SO 112 0,6 C 0,4 C
25.02.2013 17:36 1,9 C 91 % 1025,8 hPa 0,0 l/m 0,0 km/h (0 Bft) NO 45 0,6 C 1,9 C
25.02.2013 17:41 1,9 C 91 % 1025,9 hPa 0,0 l/m 7,9 km/h (2 Bft) O-NO 67 0,6 C -0,5 C
25.02.2013 17:46 1,9 C 91 % 1025,9 hPa 0,0 l/m 11,2 km/h (2 Bft) O-NO 67 0,6 C -1,3 C
25.02.2013 17:51 1,8 C 91 % 1025,9 hPa 0,0 l/m 9,0 km/h (2 Bft) O 90 0,5 C -0,9 C
25.02.2013 17:56 1,8 C 91 % 1026,0 hPa 0,0 l/m 4,0 km/h (1 Bft) O 90 0,5 C 1,8 C
25.02.2013 18:01 1,8 C 91 % 1026,1 hPa 0,0 l/m 7,6 km/h (2 Bft) O 90 0,5 C -0,5 C
25.02.2013 18:06 1,8 C 91 % 1026,1 hPa 0,0 l/m 7,6 km/h (2 Bft) NO 45 0,5 C -0,5 C
25.02.2013 18:11 1,8 C 91 % 1026,2 hPa 0,0 l/m 8,6 km/h (2 Bft) O-NO 67 0,5 C -0,8 C
25.02.2013 18:16 1,8 C 91 % 1026,3 hPa 0,0 l/m 3,6 km/h (1 Bft) O-NO 67 0,5 C 1,8 C
25.02.2013 18:21 1,8 C 91 % 1026,4 hPa 0,0 l/m 9,7 km/h (2 Bft) O 90 0,5 C -1,1 C
25.02.2013 18:26 1,8 C 91 % 1026,3 hPa 0,0 l/m 9,7 km/h (2 Bft) O 90 0,5 C -1,1 C
25.02.2013 18:31 1,8 C 91 % 1026,2 hPa 0,0 l/m 5,0 km/h (1 Bft) O-NO 67 0,5 C 0,5 C
25.02.2013 18:36 1,8 C 91 % 1026,2 hPa 0,0 l/m 6,1 km/h (2 Bft) O 90 0,5 C 0,0 C
25.02.2013 18:41 1,8 C 91 % 1026,3 hPa 0,0 l/m 7,6 km/h (2 Bft) O-NO 67 0,5 C -0,5 C
25.02.2013 18:46 1,8 C 91 % 1026,3 hPa 0,0 l/m 6,8 km/h (2 Bft) NO 45 0,5 C -0,2 C
25.02.2013 18:51 1,8 C 91 % 1026,5 hPa 0,0 l/m 3,6 km/h (1 Bft) O-NO 67 0,5 C 1,8 C
25.02.2013 18:56 1,8 C 91 % 1026,6 hPa 0,0 l/m 4,3 km/h (1 Bft) NO 45 0,5 C 1,8 C
25.02.2013 19:01 1,8 C 91 % 1026,5 hPa 0,0 l/m 5,0 km/h (1 Bft) N-NO 22 0,5 C 0,5 C
25.02.2013 19:06 1,8 C 91 % 1026,6 hPa 0,0 l/m 5,4 km/h (1 Bft) O-NO 67 0,5 C 0,3 C
25.02.2013 19:11 1,8 C 91 % 1026,8 hPa 0,0 l/m 7,2 km/h (2 Bft) O-NO 67 0,5 C -0,4 C
25.02.2013 19:16 1,8 C 91 % 1026,8 hPa 0,0 l/m 4,7 km/h (1 Bft) O-NO 67 0,5 C 0,6 C
25.02.2013 19:21 1,8 C 92 % 1026,8 hPa 0,0 l/m 2,2 km/h (1 Bft) NO 45 0,6 C 1,8 C
25.02.2013 19:26 1,8 C 92 % 1026,9 hPa 0,0 l/m 6,8 km/h (2 Bft) O-NO 67 0,6 C -0,2 C
25.02.2013 19:31 1,8 C 91 % 1026,9 hPa 0,0 l/m 6,5 km/h (2 Bft) NO 45 0,5 C -0,1 C
25.02.2013 19:36 1,8 C 92 % 1027,1 hPa 0,0 l/m 5,8 km/h (2 Bft) O-NO 67 0,6 C 0,1 C
25.02.2013 19:41 1,8 C 91 % 1027,1 hPa 0,0 l/m 4,0 km/h (1 Bft) O-NO 67 0,5 C 1,8 C
25.02.2013 19:46 1,8 C 91 % 1027,2 hPa 0,0 l/m 3,6 km/h (1 Bft) O-NO 67 0,5 C 1,8 C
25.02.2013 19:51 1,8 C 91 % 1027,1 hPa 0,0 l/m 4,0 km/h (1 Bft) NO 45 0,5 C 1,8 C
25.02.2013 19:56 1,8 C 91 % 1027,2 hPa 0,0 l/m 7,2 km/h (2 Bft) O-NO 67 0,5 C -0,4 C
25.02.2013 20:01 1,8 C 92 % 1027,3 hPa 0,0 l/m 4,0 km/h (1 Bft) O-SO 112 0,6 C 1,8 C
25.02.2013 20:06 1,8 C 92 % 1027,5 hPa 0,0 l/m 11,2 km/h (2 Bft) O-NO 67 0,6 C -1,4 C
25.02.2013 20:11 1,8 C 92 % 1027,5 hPa 0,0 l/m 3,2 km/h (1 Bft) NO 45 0,6 C 1,8 C
25.02.2013 20:16 1,7 C 92 % 1027,6 hPa 0,0 l/m 4,3 km/h (1 Bft) NO 45 0,5 C 1,7 C
25.02.2013 20:21 1,8 C 92 % 1027,6 hPa 0,0 l/m 3,2 km/h (1 Bft) O 90 0,6 C 1,8 C
25.02.2013 20:26 1,7 C 92 % 1027,8 hPa 0,0 l/m 8,3 km/h (2 Bft) NO 45 0,5 C -0,8 C
25.02.2013 20:31 1,6 C 92 % 1027,9 hPa 0,0 l/m 4,7 km/h (1 Bft) O-NO 67 0,4 C 0,4 C
25.02.2013 20:36 1,6 C 92 % 1028,0 hPa 0,0 l/m 5,0 km/h (1 Bft) NO 45 0,4 C 0,2 C
25.02.2013 20:41 1,6 C 92 % 1028,0 hPa 0,0 l/m 6,1 km/h (2 Bft) NO 45 0,4 C -0,2 C
25.02.2013 20:46 1,6 C 92 % 1027,9 hPa 0,0 l/m 3,6 km/h (1 Bft) NO 45 0,4 C 1,6 C
25.02.2013 20:51 1,6 C 92 % 1028,0 hPa 0,0 l/m 0,0 km/h (0 Bft) O 90 0,4 C 1,6 C
25.02.2013 20:56 1,6 C 92 % 1028,1 hPa 0,0 l/m 4,0 km/h (1 Bft) O-NO 67 0,4 C 1,6 C
25.02.2013 21:01 1,6 C 92 % 1028,1 hPa 0,0 l/m 6,1 km/h (2 Bft) NO 45 0,4 C -0,2 C
25.02.2013 21:06 1,6 C 92 % 1028,2 hPa 0,0 l/m 2,2 km/h (1 Bft) O-SO 112 0,4 C 1,6 C
25.02.2013 21:11 1,6 C 92 % 1028,3 hPa 0,0 l/m 10,1 km/h (2 Bft) O-NO 67 0,4 C -1,4 C
25.02.2013 21:16 1,6 C 92 % 1028,3 hPa 0,0 l/m 4,7 km/h (1 Bft) O-NO 67 0,4 C 0,4 C
25.02.2013 21:21 1,6 C 92 % 1028,3 hPa 0,0 l/m 5,8 km/h (2 Bft) NO 45 0,4 C -0,1 C
25.02.2013 21:26 1,6 C 92 % 1028,4 hPa 0,0 l/m 5,0 km/h (1 Bft) O-NO 67 0,4 C 0,2 C
25.02.2013 21:31 1,6 C 92 % 1028,4 hPa 0,0 l/m 3,2 km/h (1 Bft) NO 45 0,4 C 1,6 C
25.02.2013 21:36 1,6 C 92 % 1028,4 hPa 0,0 l/m 5,0 km/h (1 Bft) O-SO 112 0,4 C 0,2 C
25.02.2013 21:41 1,6 C 92 % 1028,6 hPa 0,0 l/m 3,6 km/h (1 Bft) O-NO 67 0,4 C 1,6 C
25.02.2013 21:46 1,6 C 92 % 1028,7 hPa 0,0 l/m 7,2 km/h (2 Bft) O-SO 112 0,4 C -0,6 C
25.02.2013 21:51 1,6 C 92 % 1028,6 hPa 0,0 l/m 5,4 km/h (1 Bft) NO 45 0,4 C 0,1 C
25.02.2013 21:56 1,6 C 92 % 1028,7 hPa 0,0 l/m 2,5 km/h (1 Bft) O-NO 67 0,4 C 1,6 C
25.02.2013 22:01 1,6 C 92 % 1028,8 hPa 0,0 l/m 5,8 km/h (2 Bft) O-NO 67 0,4 C -0,1 C
25.02.2013 22:06 1,6 C 92 % 1029,0 hPa 0,0 l/m 4,7 km/h (1 Bft) O-SO 112 0,4 C 0,4 C
25.02.2013 22:11 1,6 C 92 % 1028,8 hPa 0,0 l/m 6,5 km/h (2 Bft) O-NO 67 0,4 C -0,4 C
25.02.2013 22:16 1,6 C 92 % 1029,0 hPa 0,0 l/m 5,4 km/h (1 Bft) O-NO 67 0,4 C 0,1 C
25.02.2013 22:21 1,6 C 92 % 1029,1 hPa 0,0 l/m 2,2 km/h (1 Bft) O-NO 67 0,4 C 1,6 C
25.02.2013 22:26 1,6 C 92 % 1029,2 hPa 0,0 l/m 2,5 km/h (1 Bft) O-NO 67 0,4 C 1,6 C
25.02.2013 22:31 1,6 C 92 % 1029,1 hPa 0,0 l/m 2,5 km/h (1 Bft) O-SO 112 0,4 C 1,6 C
25.02.2013 22:36 1,6 C 92 % 1029,2 hPa 0,0 l/m 10,1 km/h (2 Bft) NO 45 0,4 C -1,4 C
25.02.2013 22:41 1,5 C 92 % 1029,2 hPa 0,0 l/m 4,7 km/h (1 Bft) O-NO 67 0,3 C 0,2 C
25.02.2013 22:46 1,6 C 92 % 1029,2 hPa 0,0 l/m 6,5 km/h (2 Bft) O-SO 112 0,4 C -0,4 C
25.02.2013 22:51 1,6 C 92 % 1029,1 hPa 0,0 l/m 4,7 km/h (1 Bft) NO 45 0,4 C 0,4 C
25.02.2013 22:56 1,6 C 92 % 1029,3 hPa 0,0 l/m 3,2 km/h (1 Bft) O-NO 67 0,4 C 1,6 C
25.02.2013 23:01 1,6 C 92 % 1029,2 hPa 0,0 l/m 3,6 km/h (1 Bft) O-NO 67 0,4 C 1,6 C
25.02.2013 23:06 1,6 C 92 % 1029,4 hPa 0,0 l/m 13,0 km/h (3 Bft) O-NO 67 0,4 C -2,1 C
25.02.2013 23:11 1,6 C 92 % 1029,1 hPa 0,0 l/m 7,6 km/h (2 Bft) O-NO 67 0,4 C -0,7 C
25.02.2013 23:16 1,6 C 92 % 1029,2 hPa 0,0 l/m 3,6 km/h (1 Bft) NO 45 0,4 C 1,6 C
25.02.2013 23:21 1,5 C 92 % 1029,2 hPa 0,0 l/m 10,8 km/h (2 Bft) O 90 0,3 C -1,7 C
25.02.2013 23:26 1,5 C 92 % 1029,4 hPa 0,0 l/m 8,6 km/h (2 Bft) O-SO 112 0,3 C -1,2 C
25.02.2013 23:31 1,5 C 92 % 1029,5 hPa 0,0 l/m 11,5 km/h (2 Bft) O-NO 67 0,3 C -1,9 C
25.02.2013 23:36 1,5 C 92 % 1029,3 hPa 0,0 l/m 5,0 km/h (1 Bft) O-NO 67 0,3 C 0,1 C
25.02.2013 23:41 1,5 C 92 % 1029,4 hPa 0,0 l/m 4,7 km/h (1 Bft) NO 45 0,3 C 0,2 C
25.02.2013 23:46 1,5 C 92 % 1029,5 hPa 0,0 l/m 9,4 km/h (2 Bft) O-NO 67 0,3 C -1,4 C
25.02.2013 23:51 1,5 C 92 % 1029,4 hPa 0,0 l/m 6,1 km/h (2 Bft) NO 45 0,3 C -0,3 C
25.02.2013 23:56 1,5 C 92 % 1029,6 hPa 0,0 l/m 7,6 km/h (2 Bft) O-NO 67 0,3 C -0,9 C
_ Min-Zeit 07:41 15:01 01:06 - 00:31 - - 07:41 11:06
Minimum _ 0,9 C 90 % 1019,8 hPa - 0,0 km/h (0 Bft) - - 0,2 C -3,3 C
_ Max-Zeit 15:36 00:01 23:56 07:31 11:06 - - 15:36 15:36
Maximum _ 2,5 C 95 % 1029,6 hPa 0,5 l/m 20,5 km/h
O-NO (4 Bft)
- - 1,2 C 2,5 C
Durchschnitt _ 1,5 C 93 % 1023,8 hPa #1,0 l/m 6,2 km/h (2 Bft) O-NO - 0,6 C -0,0 C
(c) by David Heller